createdAt,value
2023-05-09T00:01:11.466Z,76761.59
2023-05-09T00:03:37.806Z,76763.63
2023-05-09T00:06:04.957Z,76763.63
2023-05-09T00:08:31.314Z,76765.66
2023-05-09T00:10:57.885Z,76759.56
2023-05-09T00:13:24.683Z,76767.72
2023-05-09T00:15:53.913Z,76769.75
2023-05-09T00:18:22.006Z,76773.81
2023-05-09T00:20:49.143Z,76769.75
2023-05-09T00:23:16.592Z,76767.72
2023-05-09T00:25:43.100Z,76763.63
2023-05-09T00:28:09.460Z,76769.75
2023-05-09T00:30:35.820Z,76765.66
2023-05-09T00:33:02.434Z,76771.78
2023-05-09T00:35:29.009Z,76771.78
2023-05-09T00:37:55.555Z,76769.75
2023-05-09T00:40:22.331Z,76765.66
2023-05-09T00:42:48.721Z,76759.56
2023-05-09T00:45:15.433Z,76757.50
2023-05-09T00:47:42.648Z,76751.41
2023-05-09T00:50:09.443Z,76753.44
2023-05-09T00:52:35.997Z,76757.50
2023-05-09T00:55:02.806Z,76755.47
2023-05-09T00:57:29.207Z,76755.47
2023-05-09T00:59:55.976Z,76757.50
2023-05-09T01:02:22.496Z,76759.56
2023-05-09T01:04:49.114Z,76765.66
2023-05-09T01:07:51.076Z,76761.59
2023-05-09T01:10:26.750Z,76757.50
2023-05-09T01:13:14.809Z,76763.63
2023-05-09T01:15:54.036Z,76769.75
2023-05-09T01:18:28.521Z,76763.63
2023-05-09T01:21:28.024Z,76763.63
2023-05-09T01:24:34.437Z,76759.56
2023-05-09T01:27:22.284Z,76757.50
2023-05-09T01:29:56.710Z,76763.63
2023-05-09T01:32:28.921Z,76765.66
2023-05-09T01:34:59.203Z,76755.47
2023-05-09T01:37:34.523Z,76751.41
2023-05-09T01:40:06.942Z,76753.44
2023-05-09T01:42:41.021Z,76741.19
2023-05-09T01:45:09.394Z,76753.44
2023-05-09T01:47:38.319Z,76749.34
2023-05-09T01:50:06.542Z,76745.28
2023-05-09T01:52:34.656Z,76741.19
2023-05-09T01:55:02.249Z,76757.50
2023-05-09T01:57:30.400Z,76747.31
2023-05-09T01:59:58.365Z,76751.41
2023-05-09T02:02:27.320Z,76751.41
2023-05-09T02:04:56.765Z,76761.59
2023-05-09T02:07:24.916Z,76765.66
2023-05-09T02:09:56.361Z,76761.59
2023-05-09T02:12:24.120Z,76761.59
2023-05-09T02:14:50.978Z,76749.34
2023-05-09T02:17:17.369Z,76751.41
2023-05-09T02:19:44.069Z,76769.75
2023-05-09T02:22:12.092Z,76769.75
2023-05-09T02:24:38.889Z,76763.63
2023-05-09T02:27:07.093Z,76763.63
2023-05-09T02:29:42.097Z,76755.47
2023-05-09T02:32:15.419Z,76757.50
2023-05-09T02:34:42.527Z,76759.56
2023-05-09T02:37:10.731Z,76761.59
2023-05-09T02:39:37.279Z,76763.63
2023-05-09T02:42:08.885Z,76755.47
2023-05-09T02:44:36.120Z,76751.41
2023-05-09T02:47:03.513Z,76747.31
2023-05-09T02:49:32.416Z,76743.25
2023-05-09T02:52:00.740Z,76747.31
2023-05-09T02:54:27.669Z,76737.13
2023-05-09T02:56:54.081Z,76733.03
2023-05-09T02:59:20.525Z,76722.84
2023-05-09T03:01:47.271Z,76720.81
2023-05-09T03:04:13.733Z,76724.88
2023-05-09T03:06:40.319Z,76708.56
2023-05-09T03:09:07.112Z,76702.47
2023-05-09T03:11:36.662Z,76702.47
2023-05-09T03:14:03.959Z,76698.38
2023-05-09T03:16:31.192Z,76692.25
2023-05-09T03:18:58.248Z,76692.25
2023-05-09T03:21:24.650Z,76692.25
2023-05-09T03:23:51.235Z,76682.06
2023-05-09T03:26:17.786Z,76675.94
2023-05-09T03:28:44.544Z,76675.94
2023-05-09T03:31:11.073Z,76657.59
2023-05-09T03:33:37.491Z,76657.59
2023-05-09T03:36:05.119Z,76653.53
2023-05-09T03:38:31.531Z,76649.44
2023-05-09T03:40:57.951Z,76649.44
2023-05-09T03:43:25.036Z,76651.47
2023-05-09T03:45:51.404Z,76641.28
2023-05-09T03:48:17.860Z,76641.28
2023-05-09T03:50:49.154Z,76641.28
2023-05-09T03:53:15.866Z,76635.16
2023-05-09T03:55:44.227Z,76629.06
2023-05-09T03:58:12.720Z,76639.25
2023-05-09T04:00:41.849Z,76622.94
2023-05-09T04:03:14.051Z,76629.06
2023-05-09T04:05:45.180Z,76629.06
2023-05-09T04:08:18.904Z,76633.13
2023-05-09T04:10:45.333Z,76614.78
2023-05-09T04:13:11.809Z,76614.78
2023-05-09T04:15:38.646Z,76606.63
2023-05-09T04:18:05.989Z,76608.66
2023-05-09T04:20:32.547Z,76614.78
2023-05-09T04:22:59.039Z,76616.81
2023-05-09T04:25:25.922Z,76602.53
2023-05-09T04:27:52.790Z,76606.63
2023-05-09T04:30:20.841Z,76594.38
2023-05-09T04:32:48.869Z,76602.53
2023-05-09T04:35:16.846Z,76606.63
2023-05-09T04:37:47.432Z,76602.53
2023-05-09T04:40:14.494Z,76586.22
2023-05-09T04:42:47.517Z,76584.19
2023-05-09T04:45:14.278Z,76586.22
2023-05-09T04:47:41.002Z,76596.44
2023-05-09T04:50:08.251Z,76598.47
2023-05-09T04:52:34.638Z,76594.38
2023-05-09T04:55:01.435Z,76586.22
2023-05-09T04:57:33.040Z,76586.22
2023-05-09T04:59:59.489Z,76586.22
2023-05-09T05:02:26.007Z,76586.22
2023-05-09T05:04:57.932Z,76578.06
2023-05-09T05:07:30.807Z,76574.00
2023-05-09T05:09:57.174Z,76580.13
2023-05-09T05:12:23.776Z,76592.34
2023-05-09T05:14:50.283Z,76596.44
2023-05-09T05:17:19.679Z,76592.34
2023-05-09T05:19:46.506Z,76582.16
2023-05-09T05:22:13.517Z,76580.13
2023-05-09T05:24:42.836Z,76574.00
2023-05-09T05:27:09.564Z,76574.00
2023-05-09T05:29:35.962Z,76567.88
2023-05-09T05:32:02.483Z,76563.81
2023-05-09T05:34:28.984Z,76561.75
2023-05-09T05:36:56.345Z,76567.88
2023-05-09T05:39:22.786Z,76561.75
2023-05-09T05:41:49.229Z,76539.34
2023-05-09T05:44:16.244Z,76549.53
2023-05-09T05:46:42.636Z,76549.53
2023-05-09T05:49:09.196Z,76555.66
2023-05-09T05:51:35.593Z,76545.44
2023-05-09T05:54:03.140Z,76549.53
2023-05-09T05:56:29.767Z,76541.38
2023-05-09T05:58:56.911Z,76547.50
2023-05-09T06:01:23.274Z,76543.41
2023-05-09T06:03:54.532Z,76541.38
2023-05-09T06:06:22.548Z,76525.06
2023-05-09T06:08:51.967Z,76527.09
2023-05-09T06:11:19.553Z,76520.97
2023-05-09T06:13:45.992Z,76514.88
2023-05-09T06:16:19.688Z,76514.88
2023-05-09T06:18:49.263Z,76506.72
2023-05-09T06:21:15.715Z,76502.63
2023-05-09T06:23:57.133Z,76490.41
2023-05-09T06:26:28.385Z,76484.28
2023-05-09T06:28:55.027Z,76482.25
2023-05-09T06:31:22.016Z,76472.03
2023-05-09T06:33:49.444Z,76463.88
2023-05-09T06:36:15.793Z,76463.88
2023-05-09T06:38:42.162Z,76451.66
2023-05-09T06:41:08.537Z,76451.66
2023-05-09T06:43:34.880Z,76437.38
2023-05-09T06:46:01.977Z,76431.28
2023-05-09T06:48:28.357Z,76419.03
2023-05-09T06:50:54.756Z,76417.00
2023-05-09T06:53:21.171Z,76417.00
2023-05-09T06:55:47.697Z,76398.66
2023-05-09T06:58:14.631Z,76390.50
2023-05-09T07:00:40.982Z,76382.34
2023-05-09T07:03:07.414Z,76372.13
2023-05-09T07:05:34.465Z,76368.06
2023-05-09T07:08:00.975Z,76357.88
2023-05-09T07:10:27.673Z,76359.91
2023-05-09T07:12:54.276Z,76357.88
2023-05-09T07:15:32.566Z,76341.56
2023-05-09T07:18:06.695Z,76333.41
2023-05-09T07:20:33.124Z,76323.19
2023-05-09T07:22:59.856Z,76310.97
2023-05-09T07:25:26.268Z,76317.09
2023-05-09T07:27:52.615Z,76296.69
2023-05-09T07:30:19.100Z,76284.47
2023-05-09T07:32:45.645Z,76282.44
2023-05-09T07:35:12.443Z,76270.19
2023-05-09T07:37:39.052Z,76257.97
2023-05-09T07:40:06.144Z,76247.75
2023-05-09T07:42:33.029Z,76231.44
2023-05-09T07:45:00.207Z,76221.25
2023-05-09T07:47:26.635Z,76196.78
2023-05-09T07:49:53.031Z,76178.44
2023-05-09T07:52:19.428Z,76166.22
2023-05-09T07:54:45.803Z,76153.97
2023-05-09T07:57:12.217Z,76137.66
2023-05-09T07:59:38.643Z,76129.50
2023-05-09T08:02:05.074Z,76117.28
2023-05-09T08:04:31.624Z,76094.84
2023-05-09T08:06:59.350Z,76086.69
2023-05-09T08:09:26.488Z,76088.72
2023-05-09T08:11:52.962Z,76094.84
2023-05-09T08:14:19.396Z,76090.78
2023-05-09T08:16:45.734Z,76090.78
2023-05-09T08:19:12.083Z,76086.69
2023-05-09T08:21:38.549Z,76088.72
2023-05-09T08:24:07.861Z,76074.47
2023-05-09T08:26:35.149Z,76078.53
2023-05-09T08:29:01.798Z,76080.56
2023-05-09T08:31:28.189Z,76082.63
2023-05-09T08:33:54.632Z,76070.38
2023-05-09T08:36:20.997Z,76047.97
2023-05-09T08:38:47.342Z,76027.56
2023-05-09T08:41:13.997Z,76015.34
2023-05-09T08:43:41.301Z,75990.88
2023-05-09T08:46:09.717Z,76025.53
2023-05-09T08:48:39.488Z,76017.38
2023-05-09T08:51:06.540Z,76015.34
2023-05-09T08:53:34.152Z,76019.41
2023-05-09T08:56:01.664Z,76017.38
2023-05-09T08:58:28.582Z,76015.34
2023-05-09T09:00:58.367Z,75992.91
2023-05-09T09:03:27.703Z,75988.84
2023-05-09T09:05:55.590Z,75982.72
2023-05-09T09:08:22.854Z,75982.72
2023-05-09T09:10:49.624Z,75972.53
2023-05-09T09:13:17.994Z,75972.53
2023-05-09T09:15:46.735Z,75974.56
2023-05-09T09:18:20.527Z,75974.56
2023-05-09T09:20:51.878Z,75970.47
2023-05-09T09:23:20.448Z,75968.44
2023-05-09T09:25:48.159Z,75962.34
2023-05-09T09:28:15.285Z,75952.13
2023-05-09T09:30:45.723Z,75939.91
2023-05-09T09:33:21.814Z,75921.56
2023-05-09T09:35:49.927Z,75917.47
2023-05-09T09:38:18.771Z,75913.41
2023-05-09T09:40:58.833Z,75907.28
2023-05-09T09:43:32.420Z,75913.41
2023-05-09T09:46:05.756Z,75893.00
2023-05-09T09:48:34.528Z,75872.63
2023-05-09T09:51:10.476Z,75852.25
2023-05-09T09:53:41.285Z,75833.88
2023-05-09T09:56:08.083Z,75819.63
2023-05-09T09:58:34.841Z,75795.16
2023-05-09T10:01:13.916Z,75791.09
2023-05-09T10:03:42.786Z,75776.81
2023-05-09T10:06:16.593Z,75750.31
2023-05-09T10:08:47.105Z,75742.16
2023-05-09T10:11:13.797Z,75742.16
2023-05-09T10:13:40.494Z,75721.75
2023-05-09T10:16:08.850Z,75729.91
2023-05-09T10:18:35.880Z,75748.28
2023-05-09T10:21:04.023Z,75740.13
2023-05-09T10:23:32.715Z,75742.16
2023-05-09T10:26:11.461Z,75736.03
2023-05-09T10:28:40.531Z,75738.06
2023-05-09T10:31:14.719Z,75744.19
2023-05-09T10:33:46.244Z,75744.19
2023-05-09T10:36:15.286Z,75758.47
2023-05-09T10:38:42.654Z,75752.34
2023-05-09T10:41:10.741Z,75758.47
2023-05-09T10:43:37.558Z,75746.22
2023-05-09T10:46:05.059Z,75738.06
2023-05-09T10:48:36.350Z,75740.13
2023-05-09T10:51:03.632Z,75744.19
2023-05-09T10:53:49.757Z,75727.88
2023-05-09T10:56:28.749Z,75719.72
2023-05-09T10:58:55.223Z,75707.50
2023-05-09T11:01:39.025Z,75713.63
2023-05-09T11:04:14.276Z,75713.63
2023-05-09T11:06:49.286Z,75705.47
2023-05-09T11:09:37.824Z,75703.41
2023-05-09T11:12:07.273Z,75699.34
2023-05-09T11:14:48.652Z,75713.63
2023-05-09T11:17:20.939Z,75705.47
2023-05-09T11:19:47.334Z,75697.31
2023-05-09T11:22:20.173Z,75701.38
2023-05-09T11:24:48.741Z,75681.00
2023-05-09T11:27:23.158Z,75678.97
2023-05-09T11:30:05.294Z,75672.84
2023-05-09T11:32:33.104Z,75676.91
2023-05-09T11:35:14.895Z,75678.97
2023-05-09T11:37:54.933Z,75674.88
2023-05-09T11:40:22.777Z,75672.84
2023-05-09T11:42:57.969Z,75676.91
2023-05-09T11:45:30.967Z,75674.88
2023-05-09T11:47:57.752Z,75672.84
2023-05-09T11:50:24.355Z,75681.00
2023-05-09T11:52:51.193Z,75683.03
2023-05-09T11:55:20.278Z,75678.97
2023-05-09T11:57:53.995Z,75672.84
2023-05-09T12:00:24.938Z,75656.53
2023-05-09T12:02:52.434Z,75654.50
2023-05-09T12:05:20.866Z,75640.22
2023-05-09T12:07:47.676Z,75632.06
2023-05-09T12:10:20.797Z,75623.91
2023-05-09T12:12:52.107Z,75613.72
2023-05-09T12:15:20.115Z,75605.56
2023-05-09T12:17:50.473Z,75611.69
2023-05-09T12:20:18.296Z,75607.59
2023-05-09T12:22:44.672Z,75603.53
2023-05-09T12:25:11.967Z,75597.41
2023-05-09T12:27:39.835Z,75581.09
2023-05-09T12:30:11.015Z,75556.63
2023-05-09T12:32:39.994Z,75548.50
2023-05-09T12:35:08.287Z,75534.22
2023-05-09T12:37:34.651Z,75526.06
2023-05-09T12:40:12.464Z,75546.44
2023-05-09T12:42:39.650Z,75566.84
2023-05-09T12:45:08.708Z,75564.78
2023-05-09T12:47:35.372Z,75552.56
2023-05-09T12:50:03.398Z,75540.34
2023-05-09T12:52:50.706Z,75530.13
2023-05-09T12:55:25.249Z,75528.09
2023-05-09T12:58:02.543Z,75524.03
2023-05-09T13:00:29.583Z,75507.72
2023-05-09T13:02:56.087Z,75489.38
2023-05-09T13:05:23.334Z,75483.25
2023-05-09T13:07:52.358Z,75471.03
2023-05-09T13:10:23.714Z,75477.13
2023-05-09T13:12:52.002Z,75466.94
2023-05-09T13:15:20.322Z,75464.91
2023-05-09T13:17:51.424Z,75460.84
2023-05-09T13:20:19.173Z,75454.72
2023-05-09T13:22:46.337Z,75450.63
2023-05-09T13:25:13.463Z,75454.72
2023-05-09T13:27:39.964Z,75454.72
2023-05-09T13:30:10.040Z,75454.72
2023-05-09T13:32:36.527Z,75464.91
2023-05-09T13:35:04.487Z,75462.88
2023-05-09T13:37:30.851Z,75464.91
2023-05-09T13:39:57.191Z,75473.06
2023-05-09T13:42:23.506Z,75466.94
2023-05-09T13:44:49.833Z,75456.75
2023-05-09T13:47:16.224Z,75456.75
2023-05-09T13:49:42.609Z,75454.72
2023-05-09T13:52:09.067Z,75466.94
2023-05-09T13:54:35.453Z,75473.06
2023-05-09T13:57:03.494Z,75505.69
2023-05-09T13:59:30.978Z,75591.28
2023-05-09T14:01:59.683Z,75654.50
2023-05-09T14:04:29.659Z,75687.13
2023-05-09T14:06:56.456Z,75701.38
2023-05-09T14:09:22.990Z,75713.63
2023-05-09T14:11:53.055Z,75729.91
2023-05-09T14:14:20.912Z,75742.16
2023-05-09T14:16:48.047Z,75766.63
2023-05-09T14:19:17.853Z,75764.56
2023-05-09T14:21:47.156Z,75787.00
2023-05-09T14:24:16.091Z,75821.66
2023-05-09T14:26:43.188Z,75819.63
2023-05-09T14:29:09.824Z,75823.69
2023-05-09T14:31:36.855Z,75831.84
2023-05-09T14:34:04.994Z,75850.19
2023-05-09T14:36:32.412Z,75864.47
2023-05-09T14:38:58.798Z,75882.81
2023-05-09T14:41:25.339Z,75893.00
2023-05-09T14:43:52.343Z,75890.97
2023-05-09T14:46:19.142Z,75905.25
2023-05-09T14:48:45.563Z,75909.31
2023-05-09T14:51:12.138Z,75909.31
2023-05-09T14:53:41.802Z,75905.25
2023-05-09T14:56:10.728Z,75911.38
2023-05-09T14:58:37.406Z,75925.63
2023-05-09T15:01:06.964Z,75925.63
2023-05-09T15:03:36.695Z,75919.50
2023-05-09T15:06:03.235Z,75927.66
2023-05-09T15:08:29.595Z,75931.75
2023-05-09T15:10:57.576Z,75943.97
2023-05-09T15:13:23.967Z,75946.03
2023-05-09T15:15:50.320Z,75950.09
2023-05-09T15:18:18.561Z,75954.19
2023-05-09T15:20:45.042Z,75962.34
2023-05-09T15:23:13.275Z,75958.25
2023-05-09T15:25:42.824Z,75964.38
2023-05-09T15:28:09.204Z,75972.53
2023-05-09T15:30:38.162Z,75970.47
2023-05-09T15:33:04.935Z,75970.47
2023-05-09T15:35:31.370Z,75968.44
2023-05-09T15:37:57.947Z,75986.78
2023-05-09T15:40:24.436Z,75984.75
2023-05-09T15:42:51.057Z,75986.78
2023-05-09T15:45:17.528Z,75986.78
2023-05-09T15:47:44.022Z,75997.00
2023-05-09T15:50:10.757Z,75999.03
2023-05-09T15:52:37.193Z,75997.00
2023-05-09T15:55:04.311Z,76009.22
2023-05-09T15:57:30.673Z,76009.22
2023-05-09T15:59:57.053Z,76007.19
2023-05-09T16:02:23.864Z,76011.25
2023-05-09T16:04:50.510Z,76011.25
2023-05-09T16:07:19.324Z,76005.16
2023-05-09T16:09:46.235Z,76003.09
2023-05-09T16:12:13.607Z,76005.16
2023-05-09T16:14:40.031Z,76007.19
2023-05-09T16:17:06.548Z,75999.03
2023-05-09T16:19:35.927Z,75999.03
2023-05-09T16:22:02.626Z,75992.91
2023-05-09T16:24:29.283Z,75988.84
2023-05-09T16:26:55.670Z,75982.72
2023-05-09T16:29:22.384Z,75980.69
2023-05-09T16:31:48.785Z,75982.72
2023-05-09T16:34:15.132Z,75984.75
2023-05-09T16:36:43.973Z,75990.88
2023-05-09T16:39:10.362Z,76005.16
2023-05-09T16:41:38.832Z,76009.22
2023-05-09T16:44:05.229Z,76017.38
2023-05-09T16:46:31.826Z,76029.59
2023-05-09T16:48:58.217Z,76037.75
2023-05-09T16:51:24.638Z,76039.81
2023-05-09T16:53:51.083Z,76043.88
2023-05-09T16:56:17.493Z,76039.81
2023-05-09T16:58:44.806Z,76043.88
2023-05-09T17:01:11.511Z,76050.00
2023-05-09T17:03:37.921Z,76054.06
2023-05-09T17:06:04.650Z,76060.19
2023-05-09T17:08:31.378Z,76070.38
2023-05-09T17:10:58.040Z,76058.16
2023-05-09T17:13:24.553Z,76062.22
2023-05-09T17:15:52.504Z,76060.19
2023-05-09T17:18:25.463Z,76060.19
2023-05-09T17:21:00.153Z,76058.16
2023-05-09T17:23:26.490Z,76052.03
2023-05-09T17:25:52.912Z,76052.03
2023-05-09T17:28:19.241Z,76052.03
2023-05-09T17:30:45.877Z,76047.97
2023-05-09T17:33:12.303Z,76047.97
2023-05-09T17:35:38.652Z,76041.84
2023-05-09T17:38:05.094Z,76043.88
2023-05-09T17:40:31.415Z,76045.91
2023-05-09T17:42:58.082Z,76041.84
2023-05-09T17:45:24.431Z,76039.81
2023-05-09T17:47:50.789Z,76035.72
2023-05-09T17:50:17.472Z,76039.81
2023-05-09T17:52:44.460Z,76043.88
2023-05-09T17:55:11.517Z,76037.75
2023-05-09T17:57:37.928Z,76045.91
2023-05-09T18:00:07.813Z,76047.97
2023-05-09T18:02:40.519Z,76050.00
2023-05-09T18:05:10.985Z,76047.97
2023-05-09T18:07:39.060Z,76043.88
2023-05-09T18:10:06.170Z,76050.00
2023-05-09T18:12:34.979Z,76045.91
2023-05-09T18:15:03.479Z,76045.91
2023-05-09T18:17:29.916Z,76047.97
2023-05-09T18:19:56.303Z,76047.97
2023-05-09T18:22:23.975Z,76045.91
2023-05-09T18:24:52.518Z,76060.19
2023-05-09T18:27:18.858Z,76056.13
2023-05-09T18:29:47.294Z,76056.13
2023-05-09T18:32:13.877Z,76052.03
2023-05-09T18:34:40.686Z,76052.03
2023-05-09T18:37:07.471Z,76056.13
2023-05-09T18:39:34.086Z,76060.19
2023-05-09T18:42:00.441Z,76066.31
2023-05-09T18:44:26.894Z,76088.72
2023-05-09T18:46:54.026Z,76088.72
2023-05-09T18:49:20.487Z,76092.81
2023-05-09T18:51:46.817Z,76100.97
2023-05-09T18:54:14.718Z,76100.97
2023-05-09T18:56:42.209Z,76107.09
2023-05-09T18:59:11.827Z,76105.03
2023-05-09T19:01:38.245Z,76117.28
2023-05-09T19:04:05.008Z,76117.28
2023-05-09T19:06:32.384Z,76111.16
2023-05-09T19:08:58.816Z,76127.47
2023-05-09T19:11:25.436Z,76119.31
2023-05-09T19:13:52.861Z,76125.44
2023-05-09T19:16:21.575Z,76131.56
2023-05-09T19:18:48.691Z,76125.44
2023-05-09T19:21:15.858Z,76129.50
2023-05-09T19:23:42.614Z,76135.63
2023-05-09T19:26:09.994Z,76139.69
2023-05-09T19:28:36.603Z,76151.94
2023-05-09T19:31:03.081Z,76156.00
2023-05-09T19:33:29.524Z,76147.84
2023-05-09T19:35:55.832Z,76151.94
2023-05-09T19:38:22.222Z,76153.97
2023-05-09T19:40:48.656Z,76151.94
2023-05-09T19:43:15.100Z,76147.84
2023-05-09T19:45:41.467Z,76141.75
2023-05-09T19:48:08.399Z,76141.75
2023-05-09T19:50:34.794Z,76145.81
2023-05-09T19:53:01.201Z,76147.84
2023-05-09T19:55:27.747Z,76145.81
2023-05-09T19:57:54.079Z,76141.75
2023-05-09T20:00:20.690Z,76137.66
2023-05-09T20:02:47.223Z,76143.78
2023-05-09T20:05:13.814Z,76145.81
2023-05-09T20:07:40.456Z,76137.66
2023-05-09T20:10:07.217Z,76141.75
2023-05-09T20:12:33.838Z,76139.69
2023-05-09T20:15:00.806Z,76137.66
2023-05-09T20:17:27.197Z,76133.59
2023-05-09T20:19:53.686Z,76133.59
2023-05-09T20:22:20.565Z,76139.69
2023-05-09T20:24:46.988Z,76133.59
2023-05-09T20:27:13.375Z,76137.66
2023-05-09T20:29:39.771Z,76133.59
2023-05-09T20:32:06.246Z,76129.50
2023-05-09T20:34:32.799Z,76151.94
2023-05-09T20:36:59.522Z,76143.78
2023-05-09T20:39:26.739Z,76145.81
2023-05-09T20:41:55.406Z,76156.00
2023-05-09T20:44:21.812Z,76162.13
2023-05-09T20:46:48.288Z,76156.00
2023-05-09T20:49:15.161Z,76162.13
2023-05-09T20:51:42.121Z,76166.22
2023-05-09T20:54:08.516Z,76172.31
2023-05-09T20:56:35.428Z,76174.38
2023-05-09T20:59:03.760Z,76174.38
2023-05-09T21:01:37.135Z,76176.41
2023-05-09T21:04:08.206Z,76186.59
2023-05-09T21:06:36.140Z,76192.72
2023-05-09T21:09:03.277Z,76196.78
2023-05-09T21:11:29.742Z,76196.78
2023-05-09T21:13:56.075Z,76207.00
2023-05-09T21:16:23.047Z,76202.91
2023-05-09T21:18:49.580Z,76204.94
2023-05-09T21:21:15.939Z,76211.06
2023-05-09T21:23:42.302Z,76207.00
2023-05-09T21:26:08.991Z,76217.19
2023-05-09T21:28:35.388Z,76217.19
2023-05-09T21:31:01.923Z,76221.25
2023-05-09T21:33:29.418Z,76223.28
2023-05-09T21:35:55.830Z,76225.34
2023-05-09T21:38:22.265Z,76223.28
2023-05-09T21:40:51.056Z,76219.22
2023-05-09T21:43:18.129Z,76227.38
2023-05-09T21:45:45.833Z,76227.38
2023-05-09T21:48:12.358Z,76227.38
2023-05-09T21:50:38.814Z,76223.28
2023-05-09T21:53:05.337Z,76229.41
2023-05-09T21:55:31.718Z,76231.44
2023-05-09T21:57:58.172Z,76229.41
2023-05-09T22:00:24.699Z,76233.50
2023-05-09T22:02:51.246Z,76229.41
2023-05-09T22:05:17.975Z,76239.59
2023-05-09T22:07:44.476Z,76235.53
2023-05-09T22:10:11.190Z,76233.50
2023-05-09T22:12:37.779Z,76235.53
2023-05-09T22:15:04.681Z,76235.53
2023-05-09T22:17:31.069Z,76239.59
2023-05-09T22:19:57.486Z,76235.53
2023-05-09T22:22:23.887Z,76233.50
2023-05-09T22:24:50.271Z,76233.50
2023-05-09T22:27:16.809Z,76233.50
2023-05-09T22:29:43.191Z,76223.28
2023-05-09T22:32:09.641Z,76227.38
2023-05-09T22:34:36.121Z,76225.34
2023-05-09T22:37:02.661Z,76227.38
2023-05-09T22:39:29.707Z,76231.44
2023-05-09T22:41:56.593Z,76231.44
2023-05-09T22:44:22.980Z,76235.53
2023-05-09T22:46:49.413Z,76233.50
2023-05-09T22:49:15.848Z,76239.59
2023-05-09T22:51:42.247Z,76235.53
2023-05-09T22:54:08.957Z,76239.59
2023-05-09T22:56:35.350Z,76233.50
2023-05-09T22:59:01.739Z,76237.56
2023-05-09T23:01:28.251Z,76237.56
2023-05-09T23:03:54.625Z,76237.56
2023-05-09T23:06:20.995Z,76239.59
2023-05-09T23:08:47.473Z,76235.53
2023-05-09T23:11:13.926Z,76235.53
2023-05-09T23:13:40.520Z,76231.44
2023-05-09T23:16:06.915Z,76239.59
2023-05-09T23:18:33.337Z,76229.41
2023-05-09T23:20:59.686Z,76239.59
2023-05-09T23:23:26.114Z,76239.59
2023-05-09T23:25:52.562Z,76243.69
2023-05-09T23:28:20.306Z,76235.53
2023-05-09T23:30:46.806Z,76239.59
2023-05-09T23:33:13.297Z,76237.56
2023-05-09T23:35:39.670Z,76237.56
2023-05-09T23:38:06.233Z,76241.66
2023-05-09T23:40:32.616Z,76245.72
2023-05-09T23:42:59.112Z,76249.81
2023-05-09T23:45:25.736Z,76255.91
2023-05-09T23:47:52.300Z,76249.81
2023-05-09T23:50:18.934Z,76243.69
2023-05-09T23:52:49.064Z,76249.81
2023-05-09T23:55:15.593Z,76253.88
2023-05-09T23:57:42.130Z,76253.88
